createdAt,value
2023-09-18T00:01:56.309Z,88.72
2023-09-18T00:04:24.182Z,88.81
2023-09-18T00:06:51.927Z,88.84
2023-09-18T00:09:20.054Z,88.81
2023-09-18T00:11:49.086Z,88.84
2023-09-18T00:14:17.114Z,88.82
2023-09-18T00:16:58.007Z,88.82
2023-09-18T00:19:26.938Z,88.83
2023-09-18T00:21:55.590Z,88.84
2023-09-18T00:24:23.752Z,88.87
2023-09-18T00:26:53.972Z,88.89
2023-09-18T00:29:22.224Z,88.89
2023-09-18T00:31:51.159Z,88.86
2023-09-18T00:34:19.052Z,88.87
2023-09-18T00:36:46.764Z,88.82
2023-09-18T00:39:15.621Z,88.96
2023-09-18T00:41:43.973Z,89.01
2023-09-18T00:44:11.764Z,89.20
2023-09-18T00:46:39.433Z,89.19
2023-09-18T00:49:07.528Z,89.36
2023-09-18T00:51:35.665Z,89.60
2023-09-18T00:54:03.591Z,89.82
2023-09-18T00:56:31.987Z,89.76
2023-09-18T00:59:01.041Z,89.54
2023-09-18T01:01:28.851Z,89.41
2023-09-18T01:03:57.563Z,89.45
2023-09-18T01:06:28.986Z,89.58
2023-09-18T01:08:56.790Z,89.68
2023-09-18T01:11:37.422Z,89.75
2023-09-18T01:14:15.572Z,89.83
2023-09-18T01:16:58.151Z,89.88
2023-09-18T01:19:37.787Z,90.00
2023-09-18T01:36:09.663Z,92.29
2023-09-18T01:38:38.059Z,92.29
2023-09-18T01:41:05.857Z,92.30
2023-09-18T01:43:33.958Z,92.30
2023-09-18T01:46:01.649Z,92.29
2023-09-18T01:48:30.332Z,92.29
2023-09-18T01:50:58.122Z,92.30
2023-09-18T01:53:27.660Z,92.31
2023-09-18T01:55:55.451Z,92.26
2023-09-18T01:58:23.213Z,92.23
2023-09-18T02:00:51.366Z,92.24
2023-09-18T02:03:41.398Z,92.25
2023-09-18T02:06:09.888Z,92.30
2023-09-18T02:08:38.050Z,92.33
2023-09-18T02:11:05.897Z,92.22
2023-09-18T02:13:33.680Z,92.14
2023-09-18T02:16:01.346Z,92.22
2023-09-18T02:18:30.437Z,92.29
2023-09-18T02:20:58.382Z,92.36
2023-09-18T02:23:26.195Z,92.41
2023-09-18T02:26:00.389Z,92.45
2023-09-18T02:28:28.224Z,92.51
2023-09-18T02:30:55.868Z,92.50
2023-09-18T02:33:23.607Z,92.45
2023-09-18T02:35:51.707Z,92.47
2023-09-18T02:38:19.789Z,92.47
2023-09-18T02:52:23.832Z,92.40
2023-09-18T02:54:52.031Z,92.52
2023-09-18T02:57:20.174Z,92.59
2023-09-18T02:59:48.040Z,92.64
2023-09-18T03:02:16.128Z,92.67
2023-09-18T03:04:43.899Z,92.70
2023-09-18T03:07:14.578Z,92.71
2023-09-18T03:09:42.415Z,92.71
2023-09-18T03:12:10.308Z,92.70
2023-09-18T03:14:38.048Z,92.71
2023-09-18T03:17:06.077Z,92.71
2023-09-18T03:19:33.813Z,92.75
2023-09-18T03:22:02.833Z,92.77
2023-09-18T03:24:31.582Z,92.78
2023-09-18T03:26:59.559Z,92.75
2023-09-18T03:29:28.327Z,92.63
2023-09-18T03:31:59.176Z,92.30
2023-09-18T03:34:28.222Z,92.29
2023-09-18T03:36:56.801Z,92.35
2023-09-18T03:39:24.712Z,92.12
2023-09-18T03:41:52.404Z,91.81
2023-09-18T03:44:20.101Z,91.60
2023-09-18T03:46:48.035Z,91.56
2023-09-18T03:49:15.762Z,91.63
2023-09-18T04:03:01.477Z,91.45
2023-09-18T04:05:30.089Z,91.42
2023-09-18T04:08:00.243Z,91.40
2023-09-18T04:10:28.292Z,91.29
2023-09-18T04:12:55.991Z,91.24
2023-09-18T04:15:24.178Z,90.92
2023-09-18T04:17:51.904Z,90.88
2023-09-18T04:20:20.053Z,90.99
2023-09-18T04:22:51.033Z,90.82
2023-09-18T04:25:20.850Z,90.89
2023-09-18T04:27:51.678Z,90.94
2023-09-18T04:30:20.949Z,90.83
2023-09-18T04:32:49.235Z,90.60
2023-09-18T04:35:17.154Z,90.58
2023-09-18T04:37:44.928Z,90.57
2023-09-18T04:40:13.348Z,90.67
2023-09-18T04:42:41.995Z,90.68
2023-09-18T04:45:10.417Z,90.58
2023-09-18T04:47:38.757Z,90.65
2023-09-18T04:50:10.127Z,90.48
2023-09-18T04:52:44.900Z,90.35
2023-09-18T04:55:15.426Z,90.64
2023-09-18T04:57:43.164Z,90.75
2023-09-18T05:00:18.127Z,90.78
2023-09-18T05:02:46.674Z,90.55
2023-09-18T05:05:15.395Z,90.44
2023-09-18T05:07:43.974Z,90.46
2023-09-18T05:10:12.155Z,90.46
2023-09-18T05:12:41.435Z,90.53
2023-09-18T05:15:11.003Z,90.49
2023-09-18T05:17:43.745Z,90.35
2023-09-18T05:20:17.985Z,90.39
2023-09-18T05:22:46.728Z,90.07
2023-09-18T05:25:18.119Z,90.24
2023-09-18T05:27:46.423Z,90.14
2023-09-18T05:30:16.889Z,90.06
2023-09-18T05:32:46.602Z,89.84
2023-09-18T05:35:15.431Z,90.13
2023-09-18T05:37:43.309Z,90.25
2023-09-18T05:40:13.807Z,90.21
2023-09-18T05:42:44.594Z,90.24
2023-09-18T05:45:14.279Z,90.10
2023-09-18T05:47:43.753Z,90.21
2023-09-18T05:50:17.365Z,90.05
2023-09-18T05:52:46.575Z,90.19
2023-09-18T05:55:15.949Z,90.17
2023-09-18T05:57:43.716Z,90.16
2023-09-18T06:00:16.636Z,89.90
2023-09-18T06:02:45.595Z,89.80
2023-09-18T06:05:13.821Z,89.70
2023-09-18T06:07:41.822Z,89.55
2023-09-18T06:10:10.355Z,89.50
2023-09-18T06:12:40.542Z,89.71
2023-09-18T06:15:12.853Z,89.44
2023-09-18T06:17:44.133Z,89.11
2023-09-18T06:20:17.120Z,88.86
2023-09-18T06:22:45.276Z,88.71
2023-09-18T06:25:14.399Z,88.49
2023-09-18T06:27:42.952Z,88.43
2023-09-18T06:30:11.128Z,88.12
2023-09-18T06:32:39.212Z,87.89
2023-09-18T06:35:07.550Z,87.92
2023-09-18T06:37:35.638Z,87.47
2023-09-18T06:40:05.174Z,87.12
2023-09-18T06:42:34.087Z,86.90
2023-09-18T06:45:02.992Z,86.62
2023-09-18T06:47:31.261Z,86.31
2023-09-18T06:50:01.125Z,86.19
2023-09-18T06:52:29.349Z,86.00
2023-09-18T06:54:59.044Z,85.22
2023-09-18T06:57:27.157Z,84.80
2023-09-18T06:59:55.444Z,84.62
2023-09-18T07:02:23.297Z,84.20
2023-09-18T07:04:51.176Z,83.87
2023-09-18T07:07:25.938Z,83.48
2023-09-18T07:10:04.556Z,82.91
2023-09-18T07:12:34.179Z,82.59
2023-09-18T07:15:05.165Z,82.36
2023-09-18T07:17:34.962Z,81.74
2023-09-18T07:20:10.926Z,81.43
2023-09-18T07:36:47.507Z,76.06
2023-09-18T07:39:14.735Z,75.91
2023-09-18T07:41:41.444Z,75.57
2023-09-18T07:44:07.806Z,75.52
2023-09-18T07:46:34.496Z,75.04
2023-09-18T07:49:01.126Z,74.30
2023-09-18T07:51:28.508Z,74.08
2023-09-18T07:53:55.136Z,73.86
2023-09-18T07:56:21.930Z,73.45
2023-09-18T07:58:48.447Z,72.89
2023-09-18T08:01:16.986Z,72.62
2023-09-18T08:03:43.545Z,72.13
2023-09-18T08:06:12.279Z,72.14
2023-09-18T08:08:40.029Z,71.86
2023-09-18T08:11:09.575Z,71.98
2023-09-18T08:13:38.924Z,71.45
2023-09-18T08:16:07.325Z,71.02
2023-09-18T08:18:34.009Z,71.07
2023-09-18T08:21:00.851Z,70.36
2023-09-18T08:23:27.925Z,70.37
2023-09-18T08:25:57.867Z,70.00
2023-09-18T08:28:24.244Z,69.59
2023-09-18T08:30:50.647Z,68.87
2023-09-18T08:33:17.203Z,67.91
2023-09-18T08:35:45.198Z,67.36
2023-09-18T08:38:12.684Z,66.84
2023-09-18T08:40:41.297Z,65.52
2023-09-18T08:43:08.584Z,64.70
2023-09-18T08:45:48.122Z,63.36
2023-09-18T08:48:15.026Z,62.31
2023-09-18T08:50:43.078Z,61.58
2023-09-18T08:53:09.446Z,59.93
2023-09-18T08:55:36.358Z,59.27
2023-09-18T08:58:02.887Z,59.01
2023-09-18T09:00:29.554Z,56.75
2023-09-18T09:02:56.462Z,56.61
2023-09-18T09:05:23.717Z,55.98
2023-09-18T09:07:50.930Z,55.30
2023-09-18T09:10:17.958Z,55.22
2023-09-18T09:12:54.048Z,54.62
2023-09-18T09:15:23.697Z,54.50
2023-09-18T09:17:51.722Z,53.94
2023-09-18T09:20:19.323Z,53.45
2023-09-18T09:22:46.068Z,51.68
2023-09-18T09:25:33.786Z,51.64
2023-09-18T09:28:03.939Z,51.54
2023-09-18T09:30:30.574Z,51.01
2023-09-18T09:32:58.734Z,50.52
2023-09-18T09:35:28.069Z,50.27
2023-09-18T09:38:01.067Z,49.84
2023-09-18T09:40:29.579Z,48.75
2023-09-18T09:43:04.754Z,48.15
2023-09-18T09:45:38.606Z,47.70
2023-09-18T09:48:06.738Z,47.20
2023-09-18T09:50:48.730Z,46.53
2023-09-18T09:53:15.623Z,46.41
2023-09-18T09:55:42.294Z,45.70
2023-09-18T09:58:11.311Z,45.65
2023-09-18T10:00:41.176Z,45.39
2023-09-18T10:03:09.329Z,44.86
2023-09-18T10:05:38.353Z,44.49
2023-09-18T10:08:11.630Z,44.32
2023-09-18T10:10:47.449Z,43.42
2023-09-18T10:13:19.387Z,42.71
2023-09-18T10:18:27.327Z,42.07
2023-09-18T10:21:03.565Z,41.85
2023-09-18T10:23:59.062Z,40.88
2023-09-18T10:26:29.387Z,40.51
2023-09-18T10:29:00.241Z,40.15
2023-09-18T10:31:28.682Z,39.68
2023-09-18T10:34:00.978Z,39.06
2023-09-18T10:36:34.521Z,39.07
2023-09-18T10:39:02.940Z,38.43
2023-09-18T10:41:30.123Z,39.17
2023-09-18T10:43:58.898Z,39.08
2023-09-18T10:46:26.212Z,38.57
2023-09-18T10:48:54.509Z,38.95
2023-09-18T10:51:22.842Z,39.06
2023-09-18T10:53:52.901Z,38.08
2023-09-18T10:56:22.459Z,38.46
2023-09-18T10:59:05.282Z,39.13
2023-09-18T11:01:32.945Z,38.45
2023-09-18T11:04:03.669Z,38.34
2023-09-18T11:06:30.568Z,38.19
2023-09-18T11:09:04.438Z,38.77
2023-09-18T11:11:33.297Z,38.01
2023-09-18T11:14:01.866Z,38.14
2023-09-18T11:16:28.558Z,38.16
2023-09-18T11:19:01.401Z,38.24
2023-09-18T11:21:29.808Z,37.96
2023-09-18T11:23:59.817Z,38.19
2023-09-18T11:26:36.782Z,38.87
2023-09-18T11:29:09.808Z,38.46
2023-09-18T11:31:54.200Z,37.64
2023-09-18T11:34:22.341Z,37.65
2023-09-18T11:36:50.317Z,37.13
2023-09-18T11:39:38.638Z,36.99
2023-09-18T11:42:17.419Z,37.38
2023-09-18T11:44:46.870Z,37.29
2023-09-18T11:47:21.881Z,37.37
2023-09-18T11:49:54.819Z,37.53
2023-09-18T11:52:23.226Z,37.62
2023-09-18T11:54:50.509Z,37.60
2023-09-18T11:57:18.954Z,37.63
2023-09-18T11:59:46.798Z,37.75
2023-09-18T12:02:28.481Z,37.82
2023-09-18T12:04:55.490Z,37.63
2023-09-18T12:07:21.969Z,37.54
2023-09-18T12:09:48.373Z,37.45
2023-09-18T12:12:16.780Z,37.34
2023-09-18T12:14:43.169Z,37.57
2023-09-18T12:17:09.526Z,37.87
2023-09-18T12:19:35.890Z,38.05
2023-09-18T12:22:02.742Z,38.12
2023-09-18T12:24:29.313Z,38.51
2023-09-18T12:26:59.463Z,38.75
2023-09-18T12:29:25.883Z,38.91
2023-09-18T12:31:53.035Z,38.92
2023-09-18T12:34:23.996Z,39.12
2023-09-18T12:36:51.676Z,39.41
2023-09-18T12:39:21.611Z,39.57
2023-09-18T12:41:48.769Z,39.59
2023-09-18T12:44:17.043Z,39.45
2023-09-18T12:46:44.839Z,39.66
2023-09-18T12:49:21.759Z,39.54
2023-09-18T12:52:09.019Z,39.85
2023-09-18T12:54:39.219Z,40.08
2023-09-18T12:57:07.425Z,39.83
2023-09-18T12:59:36.196Z,39.48
2023-09-18T13:02:04.846Z,39.31
2023-09-18T13:04:41.193Z,39.48
2023-09-18T13:07:15.468Z,39.60
2023-09-18T13:09:41.845Z,39.76
2023-09-18T13:12:09.385Z,39.65
2023-09-18T13:14:58.741Z,40.16
2023-09-18T13:17:25.434Z,40.12
2023-09-18T13:19:51.786Z,40.06
2023-09-18T13:22:27.456Z,39.93
2023-09-18T13:24:57.644Z,39.61
2023-09-18T13:27:24.638Z,39.14
2023-09-18T13:29:54.513Z,39.20
2023-09-18T13:32:21.691Z,39.41
2023-09-18T13:34:48.731Z,39.11
2023-09-18T13:37:17.726Z,39.22
2023-09-18T13:39:44.078Z,39.04
2023-09-18T13:42:10.387Z,38.90
2023-09-18T13:44:37.464Z,39.13
2023-09-18T13:47:04.437Z,39.11
2023-09-18T13:49:30.894Z,38.96
2023-09-18T13:51:57.262Z,38.77
2023-09-18T13:54:23.608Z,38.86
2023-09-18T13:56:49.944Z,38.68
2023-09-18T13:59:16.310Z,38.54
2023-09-18T14:01:42.615Z,38.79
2023-09-18T14:04:09.318Z,38.93
2023-09-18T14:06:35.911Z,39.24
2023-09-18T14:09:06.033Z,39.46
2023-09-18T14:11:32.339Z,39.90
2023-09-18T14:13:58.615Z,40.21
2023-09-18T14:16:25.597Z,40.80
2023-09-18T14:18:54.444Z,41.09
2023-09-18T14:21:20.909Z,41.26
2023-09-18T14:23:47.656Z,41.32
2023-09-18T14:28:47.448Z,41.70
2023-09-18T14:31:13.815Z,42.39
2023-09-18T14:33:41.176Z,42.38
2023-09-18T14:36:07.672Z,42.43
2023-09-18T14:38:33.981Z,42.38
2023-09-18T14:41:03.293Z,42.44
2023-09-18T14:43:30.249Z,42.69
2023-09-18T14:45:57.505Z,42.97
2023-09-18T14:48:24.511Z,43.30
2023-09-18T14:50:55.020Z,43.57
2023-09-18T14:53:21.731Z,43.93
2023-09-18T14:55:49.343Z,44.16
2023-09-18T14:58:15.675Z,44.13
2023-09-18T15:00:42.590Z,44.75
2023-09-18T15:03:09.089Z,44.86
2023-09-18T15:05:35.908Z,44.96
2023-09-18T15:08:02.503Z,45.26
2023-09-18T15:10:29.102Z,45.46
2023-09-18T15:12:55.564Z,45.66
2023-09-18T15:15:22.169Z,45.86
2023-09-18T15:17:49.308Z,46.08
2023-09-18T15:20:17.806Z,46.38
2023-09-18T15:22:44.647Z,46.89
2023-09-18T15:25:11.279Z,47.12
2023-09-18T15:27:37.877Z,47.30
2023-09-18T15:30:07.366Z,47.48
2023-09-18T15:32:54.073Z,47.63
2023-09-18T15:35:24.740Z,47.71
2023-09-18T15:37:52.020Z,48.14
2023-09-18T15:40:21.099Z,48.46
2023-09-18T15:42:49.973Z,48.63
2023-09-18T15:45:16.330Z,48.80
2023-09-18T15:47:42.691Z,48.70
2023-09-18T15:50:10.558Z,49.35
2023-09-18T15:52:37.706Z,49.68
2023-09-18T15:55:05.947Z,50.21
2023-09-18T15:57:36.932Z,50.22
2023-09-18T16:00:05.252Z,50.56
2023-09-18T16:02:39.132Z,50.65
2023-09-18T16:05:06.400Z,51.08
2023-09-18T16:07:39.939Z,51.21
2023-09-18T16:10:07.820Z,51.77
2023-09-18T16:12:35.294Z,51.92
2023-09-18T16:15:03.406Z,52.12
2023-09-18T16:17:29.937Z,52.50
2023-09-18T16:19:58.336Z,52.90
2023-09-18T16:22:28.260Z,52.87
2023-09-18T16:24:54.745Z,53.27
2023-09-18T16:27:21.066Z,53.53
2023-09-18T16:29:47.462Z,53.65
2023-09-18T16:32:13.764Z,53.76
2023-09-18T16:34:40.322Z,54.09
2023-09-18T16:37:06.636Z,54.20
2023-09-18T16:39:32.924Z,54.34
2023-09-18T16:41:59.384Z,54.58
2023-09-18T16:44:25.840Z,54.94
2023-09-18T16:46:52.408Z,55.26
2023-09-18T16:49:22.705Z,55.37
2023-09-18T16:51:50.393Z,55.70
2023-09-18T16:54:19.097Z,56.07
2023-09-18T16:56:45.933Z,56.45
2023-09-18T16:59:13.048Z,56.55
2023-09-18T17:01:39.701Z,56.84
2023-09-18T17:04:07.101Z,57.00
2023-09-18T17:06:35.427Z,57.50
2023-09-18T17:09:08.713Z,57.79
2023-09-18T17:11:36.080Z,58.04
2023-09-18T17:14:02.489Z,58.33
2023-09-18T17:16:31.434Z,58.71
2023-09-18T17:18:57.925Z,59.09
2023-09-18T17:21:25.279Z,59.30
2023-09-18T17:23:52.092Z,59.39
2023-09-18T17:26:18.538Z,59.69
2023-09-18T17:28:45.499Z,59.88
2023-09-18T17:31:12.163Z,60.22
2023-09-18T17:33:39.197Z,60.46
2023-09-18T17:36:08.591Z,60.82
2023-09-18T17:38:36.271Z,61.10
2023-09-18T17:41:04.521Z,61.48
2023-09-18T17:43:32.427Z,61.66
2023-09-18T17:45:58.862Z,61.97
2023-09-18T17:48:25.395Z,62.38
2023-09-18T17:50:51.897Z,62.54
2023-09-18T17:53:18.449Z,62.66
2023-09-18T17:55:45.057Z,62.92
2023-09-18T17:58:11.541Z,63.17
2023-09-18T18:00:38.629Z,63.41
2023-09-18T18:03:05.419Z,63.45
2023-09-18T18:05:32.216Z,63.51
2023-09-18T18:07:59.268Z,64.07
2023-09-18T18:10:25.644Z,64.24
2023-09-18T18:12:52.044Z,64.17
2023-09-18T18:15:18.345Z,64.16
2023-09-18T18:17:45.069Z,64.03
2023-09-18T18:20:13.136Z,64.37
2023-09-18T18:22:40.516Z,64.82
2023-09-18T18:25:08.624Z,65.00
2023-09-18T18:27:35.141Z,65.37
2023-09-18T18:30:02.120Z,65.03
2023-09-18T18:32:28.707Z,65.00
2023-09-18T18:34:56.176Z,65.07
2023-09-18T18:37:22.971Z,65.39
2023-09-18T18:39:49.503Z,65.62
2023-09-18T18:42:15.792Z,65.80
2023-09-18T18:44:42.203Z,66.06
2023-09-18T18:47:08.640Z,66.31
2023-09-18T18:49:35.019Z,65.99
2023-09-18T18:52:03.431Z,66.54
2023-09-18T18:54:32.250Z,66.70
2023-09-18T18:56:58.690Z,66.54
2023-09-18T18:59:26.236Z,66.78
2023-09-18T19:01:55.903Z,67.19
2023-09-18T19:04:22.842Z,67.00
2023-09-18T19:06:49.202Z,67.33
2023-09-18T19:09:17.929Z,67.61
2023-09-18T19:11:44.269Z,67.60
2023-09-18T19:14:10.653Z,67.61
2023-09-18T19:16:37.069Z,67.73
2023-09-18T19:19:04.204Z,67.85
2023-09-18T19:21:30.797Z,68.30
2023-09-18T19:23:57.103Z,68.34
2023-09-18T19:26:23.490Z,68.56
2023-09-18T19:28:50.038Z,68.85
2023-09-18T19:31:22.419Z,68.71
2023-09-18T19:33:49.030Z,69.01
2023-09-18T19:36:17.648Z,69.47
2023-09-18T19:38:44.689Z,69.66
2023-09-18T19:41:11.859Z,69.52
2023-09-18T19:43:38.370Z,69.87
2023-09-18T19:46:04.989Z,69.98
2023-09-18T19:48:31.751Z,69.99
2023-09-18T19:50:59.986Z,70.18
2023-09-18T19:53:27.249Z,70.35
2023-09-18T19:55:53.918Z,70.95
2023-09-18T19:58:20.226Z,71.05
2023-09-18T20:00:46.928Z,71.08
2023-09-18T20:03:13.308Z,71.26
2023-09-18T20:05:39.892Z,71.61
2023-09-18T20:08:06.549Z,71.74
2023-09-18T20:10:33.478Z,71.77
2023-09-18T20:13:01.162Z,72.01
2023-09-18T20:15:30.926Z,72.35
2023-09-18T20:17:57.476Z,72.24
2023-09-18T20:20:26.552Z,72.47
2023-09-18T20:22:52.856Z,72.66
2023-09-18T20:25:19.341Z,72.84
2023-09-18T20:27:45.752Z,72.76
2023-09-18T20:30:16.378Z,72.94
2023-09-18T20:32:44.416Z,73.23
2023-09-18T20:35:12.333Z,73.47
2023-09-18T20:37:38.640Z,73.45
2023-09-18T20:40:06.913Z,73.66
2023-09-18T20:42:34.126Z,73.50
2023-09-18T20:45:00.787Z,74.26
2023-09-18T20:47:28.583Z,74.44
2023-09-18T20:49:56.366Z,74.41
2023-09-18T20:52:23.965Z,74.20
2023-09-18T20:54:51.690Z,74.34
2023-09-18T20:57:18.224Z,74.59
2023-09-18T20:59:45.597Z,74.82
2023-09-18T21:02:13.775Z,74.82
2023-09-18T21:04:40.607Z,75.01
2023-09-18T21:07:07.226Z,74.90
2023-09-18T21:09:33.921Z,74.88
2023-09-18T21:12:03.282Z,75.16
2023-09-18T21:14:30.966Z,75.18
2023-09-18T21:16:57.400Z,75.34
2023-09-18T21:19:23.783Z,75.87
2023-09-18T21:21:51.451Z,76.00
2023-09-18T21:24:18.112Z,76.34
2023-09-18T21:26:45.433Z,76.20
2023-09-18T21:29:11.844Z,76.09
2023-09-18T21:31:38.994Z,76.25
2023-09-18T21:34:05.438Z,76.21
2023-09-18T21:36:31.881Z,76.56
2023-09-18T21:38:58.238Z,76.38
2023-09-18T21:41:24.562Z,76.89
2023-09-18T21:43:50.878Z,76.88
2023-09-18T21:46:17.630Z,77.35
2023-09-18T21:48:44.680Z,77.50
2023-09-18T21:51:16.243Z,77.68
2023-09-18T21:53:43.444Z,77.71
2023-09-18T21:56:10.084Z,77.99
2023-09-18T21:58:36.567Z,77.77
2023-09-18T22:01:04.334Z,78.04
2023-09-18T22:03:36.607Z,77.85
2023-09-18T22:06:05.068Z,78.31
2023-09-18T22:08:32.309Z,78.69
2023-09-18T22:10:58.706Z,78.74
2023-09-18T22:13:25.088Z,78.88
2023-09-18T22:15:51.444Z,78.68
2023-09-18T22:18:17.985Z,78.41
2023-09-18T22:20:44.496Z,79.27
2023-09-18T22:23:13.700Z,79.22
2023-09-18T22:25:41.152Z,79.53
2023-09-18T22:28:08.207Z,79.57
2023-09-18T22:30:34.842Z,79.76
2023-09-18T22:33:03.171Z,79.63
2023-09-18T22:35:32.739Z,79.56
2023-09-18T22:38:20.897Z,79.50
2023-09-18T22:40:49.466Z,79.05
2023-09-18T22:43:53.697Z,79.85
2023-09-18T22:46:58.774Z,79.65
2023-09-18T22:50:05.272Z,79.91
2023-09-18T22:52:45.137Z,79.96
2023-09-18T22:55:18.083Z,80.31
2023-09-18T22:57:47.983Z,80.59
2023-09-18T23:00:17.391Z,81.11
2023-09-18T23:02:45.212Z,81.18
2023-09-18T23:05:14.811Z,80.80
2023-09-18T23:07:43.897Z,80.69
2023-09-18T23:10:12.813Z,80.94
2023-09-18T23:12:39.115Z,81.13
2023-09-18T23:15:11.720Z,81.46
2023-09-18T23:17:42.212Z,80.80
2023-09-18T23:20:12.160Z,81.39
2023-09-18T23:22:41.003Z,81.41
2023-09-18T23:25:12.473Z,81.50
2023-09-18T23:27:44.535Z,81.72
2023-09-18T23:30:17.743Z,81.82
2023-09-18T23:32:55.912Z,81.97
2023-09-18T23:35:22.244Z,81.87
2023-09-18T23:37:59.162Z,81.74
2023-09-18T23:40:32.029Z,82.00
2023-09-18T23:43:04.335Z,82.18
2023-09-18T23:45:38.387Z,82.07
2023-09-18T23:48:19.950Z,82.21
2023-09-18T23:50:51.616Z,82.08
2023-09-18T23:53:20.721Z,82.25
2023-09-18T23:55:49.896Z,82.17
2023-09-18T23:58:22.434Z,82.34
